Norwegian Dream — C6LG5 — position and weather

sailwx.info

Track history (hours):
 
Tides and Currents Weather Stations Pressure Air Temp Water Temp Dewpoint Dewpoint Depression Visibility Wind Speed Wind Dir Waves Ship Positions

Norwegian Dream

Operator: Norwegian Cruise Line

Last reported at 2020-Jan-25 03:30 UTC. Time now 2020-Jan-25 06:12 UTC.
Position N 25°23' E 121°30'.

Type: Ship. MMSI: 308272000.

Date/timePositionNaut miles runAvg speedWind from/ knotsBaromVisibWave heightAir tempDewpointWater temp
2020-Jan-25 03:30N 25°23' E 121°30'2811.2
2020-Jan-25 00:59N 25°13' E 121°01'12417.7
2020-Jan-24 18:00N 24°42' E 118°48'40 3.8 030 / 331021.0 5.4 15.015.014.0
2020-Jan-24 07:25N 24°17' E 118°14'614.5
2020-Jan-24 07:00N 24°21' E 118°09'9 2.5
2020-Jan-24 03:21N 24°29' E 118°04'0 0.0
2020-Jan-24 02:13N 24°29' E 118°04'0 0.0
2020-Jan-24 00:07N 24°29' E 118°04'0 0.0
2020-Jan-23 23:18N 24°29' E 118°04'12 9.1
2020-Jan-23 22:00N 24°19' E 118°11'15012.1
2020-Jan-23 09:33N 25°08' E 120°48'4512.8
2020-Jan-23 06:00N 25°23' E 121°35'611.9
2020-Jan-23 05:30N 25°23' E 121°42'14712.7
2020-Jan-22 18:00N 25°36' E 124°24'176 7.4 180 / 251021.0 5.4 23.023.024.0
2020-Jan-21 18:00N 26°12' E 127°36'120 5.0 160 / 61025.0 5.4 18.018.019.0
2020-Jan-20 18:00N 27°30' E 125°54'29012.2 360 / 171026.0 5.4 14.014.015.0
2020-Jan-19 18:08N 31°08' E 122°14'2113.0
2020-Jan-19 16:31N 31°16' E 121°51'2 0.1
2020-Jan-18 22:00N 31°17' E 121°49'510.4
2020-Jan-18 21:30N 31°16' E 121°55'1110.9
2020-Jan-18 20:30N 31°13' E 122°07'1010.0
2020-Jan-18 19:30N 31°07' E 122°17'14 9.4
2020-Jan-18 18:00N 31°07' E 122°33'4 5.9
2020-Jan-18 17:23N 31°06' E 122°38'29712.7
2020-Jan-17 18:00N 26°24' E 120°54'31113.0 030 / 271024.0 5.4 11.011.013.0
2020-Jan-16 18:00N 22°48' E 116°48'9212.8 360 / 121020.0 5.4 17.017.019.0
2020-Jan-16 10:47N 22°13' E 115°16'3013.3
2020-Jan-16 08:30N 22°08' E 114°43'36 8.9
2020-Jan-16 04:29N 22°18' E 114°06'0 0.0
2020-Jan-16 03:56N 22°18' E 114°06'0 0.0
2020-Jan-16 03:29N 22°18' E 114°06'0 0.1
2020-Jan-16 02:26N 22°18' E 114°06'0 0.1
2020-Jan-16 01:26N 22°18' E 114°06'0 0.0
2020-Jan-15 23:29N 22°18' E 114°06'3 2.8
2020-Jan-15 22:29N 22°15' E 114°07'2510.0
2020-Jan-15 20:00N 22°07' E 114°33'3 6.0
2020-Jan-15 19:30N 22°07' E 114°36'3 2.2
2020-Jan-15 18:00N 22°05' E 114°39'6488.8
2020-Jan-15 18:00N 22°00' E 114°36'12 3.0 090 / 391018.0 2.2 20.020.024.0
2020-Jan-15 13:48N 22°05' E 114°24'21 9.0
2020-Jan-15 11:31N 22°18' E 114°06'0 0.0
2020-Jan-15 09:29N 22°18' E 114°06'0 0.1
2020-Jan-15 08:26N 22°18' E 114°06'0 0.0
2020-Jan-15 04:56N 22°18' E 114°06'  
Track history (hours):
 
Tides and Currents Weather Stations Pressure Air Temp Water Temp Dewpoint Dewpoint Depression Visibility Wind Speed Wind Dir Waves Ship Positions

Norwegian Dream

Operator: Norwegian Cruise Line

Last reported at 2020-Jan-25 03:30 UTC. Time now 2020-Jan-25 06:12 UTC.
Position N 25°23' E 121°30'.

Type: Ship. MMSI: 308272000.

Date/timePositionNaut miles runAvg speedWind from/ knotsBaromVisibWave heightAir tempDewpointWater temp
2020-Jan-25 03:30N 25°23' E 121°30'2811.2
2020-Jan-25 00:59N 25°13' E 121°01'12417.7
2020-Jan-24 18:00N 24°42' E 118°48'40 3.8 030 / 331021.0 5.4 15.015.014.0
2020-Jan-24 07:25N 24°17' E 118°14'614.5
2020-Jan-24 07:00N 24°21' E 118°09'9 2.5
2020-Jan-24 03:21N 24°29' E 118°04'0 0.0
2020-Jan-24 02:13N 24°29' E 118°04'0 0.0
2020-Jan-24 00:07N 24°29' E 118°04'0 0.0
2020-Jan-23 23:18N 24°29' E 118°04'12 9.1
2020-Jan-23 22:00N 24°19' E 118°11'15012.1
2020-Jan-23 09:33N 25°08' E 120°48'4512.8
2020-Jan-23 06:00N 25°23' E 121°35'611.9
2020-Jan-23 05:30N 25°23' E 121°42'14712.7
2020-Jan-22 18:00N 25°36' E 124°24'176 7.4 180 / 251021.0 5.4 23.023.024.0
2020-Jan-21 18:00N 26°12' E 127°36'120 5.0 160 / 61025.0 5.4 18.018.019.0
2020-Jan-20 18:00N 27°30' E 125°54'29012.2 360 / 171026.0 5.4 14.014.015.0
2020-Jan-19 18:08N 31°08' E 122°14'2113.0
2020-Jan-19 16:31N 31°16' E 121°51'2 0.1
2020-Jan-18 22:00N 31°17' E 121°49'510.4
2020-Jan-18 21:30N 31°16' E 121°55'1110.9
2020-Jan-18 20:30N 31°13' E 122°07'1010.0
2020-Jan-18 19:30N 31°07' E 122°17'14 9.4
2020-Jan-18 18:00N 31°07' E 122°33'4 5.9
2020-Jan-18 17:23N 31°06' E 122°38'29712.7
2020-Jan-17 18:00N 26°24' E 120°54'31113.0 030 / 271024.0 5.4 11.011.013.0
2020-Jan-16 18:00N 22°48' E 116°48'9212.8 360 / 121020.0 5.4 17.017.019.0
2020-Jan-16 10:47N 22°13' E 115°16'3013.3
2020-Jan-16 08:30N 22°08' E 114°43'36 8.9
2020-Jan-16 04:29N 22°18' E 114°06'0 0.0
2020-Jan-16 03:56N 22°18' E 114°06'0 0.0
2020-Jan-16 03:29N 22°18' E 114°06'0 0.1
2020-Jan-16 02:26N 22°18' E 114°06'0 0.1
2020-Jan-16 01:26N 22°18' E 114°06'0 0.0
2020-Jan-15 23:29N 22°18' E 114°06'3 2.8
2020-Jan-15 22:29N 22°15' E 114°07'2510.0
2020-Jan-15 20:00N 22°07' E 114°33'3 6.0
2020-Jan-15 19:30N 22°07' E 114°36'3 2.2
2020-Jan-15 18:00N 22°05' E 114°39'6488.8
2020-Jan-15 18:00N 22°00' E 114°36'12 3.0 090 / 391018.0 2.2 20.020.024.0
2020-Jan-15 13:48N 22°05' E 114°24'21 9.0
2020-Jan-15 11:31N 22°18' E 114°06'0 0.0
2020-Jan-15 09:29N 22°18' E 114°06'0 0.1
2020-Jan-15 08:26N 22°18' E 114°06'0 0.0
2020-Jan-15 04:56N 22°18' E 114°06'  

Dump ship's entire track history